createdAt,value
2022-07-29T00:00:21.664Z,58.09
2022-07-29T00:03:04.179Z,58.14
2022-07-29T00:05:32.623Z,57.64
2022-07-29T00:08:00.604Z,56.68
2022-07-29T00:10:28.938Z,56.98
2022-07-29T00:12:56.904Z,56.90
2022-07-29T00:15:24.929Z,56.27
2022-07-29T00:17:52.858Z,56.07
2022-07-29T00:20:21.004Z,55.73
2022-07-29T00:22:48.953Z,55.50
2022-07-29T00:25:16.941Z,55.43
2022-07-29T00:27:46.850Z,55.27
2022-07-29T00:30:14.809Z,54.82
2022-07-29T00:32:42.786Z,53.89
2022-07-29T00:35:29.290Z,53.52
2022-07-29T00:37:57.214Z,53.88
2022-07-29T00:40:26.006Z,53.80
2022-07-29T00:42:54.353Z,53.59
2022-07-29T00:45:25.665Z,53.22
2022-07-29T00:47:53.564Z,52.71
2022-07-29T00:50:21.617Z,52.53
2022-07-29T00:52:50.174Z,52.38
2022-07-29T00:55:18.577Z,52.53
2022-07-29T00:57:47.817Z,52.20
2022-07-29T01:00:19.411Z,51.93
2022-07-29T01:02:51.878Z,51.97
2022-07-29T01:05:22.413Z,51.65
2022-07-29T01:07:53.607Z,51.61
2022-07-29T01:10:23.886Z,51.77
2022-07-29T01:12:53.987Z,51.71
2022-07-29T01:15:22.177Z,51.77
2022-07-29T01:18:09.943Z,51.58
2022-07-29T01:21:22.623Z,51.33
2022-07-29T01:24:08.629Z,51.46
2022-07-29T01:26:58.696Z,51.17
2022-07-29T01:29:38.649Z,51.24
2022-07-29T01:32:27.680Z,51.28
2022-07-29T01:35:16.826Z,51.18
2022-07-29T01:37:50.114Z,51.29
2022-07-29T01:40:41.099Z,51.30
2022-07-29T01:43:22.246Z,51.35
2022-07-29T01:46:21.294Z,51.52
2022-07-29T01:48:57.665Z,51.29
2022-07-29T01:51:32.656Z,51.47
2022-07-29T01:54:22.203Z,51.47
2022-07-29T01:56:53.040Z,51.49
2022-07-29T01:59:22.401Z,51.50
2022-07-29T02:01:54.691Z,51.43
2022-07-29T02:04:29.085Z,51.52
2022-07-29T02:07:04.977Z,51.47
2022-07-29T02:09:35.993Z,51.58
2022-07-29T02:12:07.003Z,51.65
2022-07-29T02:14:39.549Z,51.84
2022-07-29T02:17:08.334Z,51.78
2022-07-29T02:19:39.632Z,51.80
2022-07-29T02:22:10.029Z,51.84
2022-07-29T02:24:41.208Z,51.89
2022-07-29T02:27:10.838Z,52.08
2022-07-29T02:29:40.889Z,52.16
2022-07-29T02:32:12.119Z,52.51
2022-07-29T02:34:42.135Z,52.40
2022-07-29T02:37:14.057Z,52.53
2022-07-29T02:39:45.007Z,52.51
2022-07-29T02:42:17.099Z,52.83
2022-07-29T02:44:45.102Z,53.05
2022-07-29T02:47:28.416Z,53.13
2022-07-29T02:50:27.324Z,53.22
2022-07-29T02:52:59.934Z,53.32
2022-07-29T02:55:34.701Z,53.63
2022-07-29T02:58:03.709Z,53.57
2022-07-29T03:00:36.089Z,53.78
2022-07-29T03:03:08.706Z,53.81
2022-07-29T03:05:36.666Z,53.82
2022-07-29T03:08:07.739Z,53.84
2022-07-29T03:10:38.099Z,54.05
2022-07-29T03:13:06.489Z,54.10
2022-07-29T03:15:34.962Z,54.27
2022-07-29T03:18:03.637Z,54.33
2022-07-29T03:20:31.699Z,54.36
2022-07-29T03:22:59.798Z,54.45
2022-07-29T03:25:28.427Z,54.67
2022-07-29T03:27:57.494Z,54.69
2022-07-29T03:30:25.485Z,54.95
2022-07-29T03:32:54.082Z,54.90
2022-07-29T03:35:24.557Z,55.13
2022-07-29T03:37:52.703Z,55.36
2022-07-29T03:40:28.818Z,55.32
2022-07-29T03:42:57.493Z,55.55
2022-07-29T03:45:26.646Z,55.73
2022-07-29T03:48:01.363Z,55.79
2022-07-29T03:50:31.714Z,55.81
2022-07-29T03:53:00.928Z,56.08
2022-07-29T03:55:33.490Z,55.89
2022-07-29T03:58:03.197Z,56.12
2022-07-29T04:00:32.844Z,56.03
2022-07-29T04:03:01.705Z,56.10
2022-07-29T04:05:29.678Z,56.45
2022-07-29T04:07:57.871Z,56.40
2022-07-29T04:10:30.518Z,56.56
2022-07-29T04:13:00.664Z,56.58
2022-07-29T04:15:31.440Z,56.91
2022-07-29T04:18:00.486Z,57.22
2022-07-29T04:20:28.543Z,57.23
2022-07-29T04:22:56.486Z,57.34
2022-07-29T04:25:24.398Z,57.40
2022-07-29T04:28:01.422Z,57.50
2022-07-29T04:30:31.043Z,57.52
2022-07-29T04:32:59.888Z,57.74
2022-07-29T04:35:29.317Z,57.69
2022-07-29T04:37:57.355Z,57.82
2022-07-29T04:40:25.503Z,57.81
2022-07-29T04:42:53.425Z,58.12
2022-07-29T04:45:22.871Z,58.04
2022-07-29T04:47:51.208Z,58.42
2022-07-29T04:50:19.289Z,58.46
2022-07-29T04:52:47.421Z,58.45
2022-07-29T04:55:15.445Z,58.67
2022-07-29T04:57:43.475Z,58.66
2022-07-29T05:00:11.849Z,58.95
2022-07-29T05:02:39.849Z,58.90
2022-07-29T05:05:08.437Z,58.87
2022-07-29T05:07:36.405Z,58.91
2022-07-29T05:10:04.834Z,59.10
2022-07-29T05:12:32.847Z,59.25
2022-07-29T05:15:00.826Z,59.34
2022-07-29T05:17:28.874Z,59.49
2022-07-29T05:19:56.830Z,59.52
2022-07-29T05:22:24.816Z,59.46
2022-07-29T05:24:52.672Z,59.43
2022-07-29T05:27:20.844Z,59.48
2022-07-29T05:29:48.956Z,59.62
2022-07-29T05:32:16.857Z,59.84
2022-07-29T05:34:50.928Z,59.89
2022-07-29T05:37:20.959Z,59.84
2022-07-29T05:39:56.897Z,59.91
2022-07-29T05:42:26.503Z,59.84
2022-07-29T05:44:54.456Z,59.88
2022-07-29T05:47:23.106Z,59.90
2022-07-29T05:49:52.006Z,59.84
2022-07-29T05:52:20.141Z,59.77
2022-07-29T05:54:48.065Z,59.56
2022-07-29T05:57:21.084Z,59.39
2022-07-29T05:59:50.210Z,59.29
2022-07-29T06:02:18.848Z,59.17
2022-07-29T06:04:46.954Z,58.95
2022-07-29T06:07:14.979Z,58.85
2022-07-29T06:09:43.422Z,58.28
2022-07-29T06:12:11.366Z,58.02
2022-07-29T06:14:39.423Z,58.22
2022-07-29T06:17:07.417Z,58.11
2022-07-29T06:19:37.483Z,57.82
2022-07-29T06:22:05.939Z,57.42
2022-07-29T06:24:34.002Z,57.26
2022-07-29T06:27:01.950Z,57.39
2022-07-29T06:29:30.050Z,57.34
2022-07-29T06:31:58.044Z,57.16
2022-07-29T06:35:50.295Z,57.13
2022-07-29T06:38:31.557Z,57.28
2022-07-29T06:41:07.103Z,56.85
2022-07-29T06:43:51.973Z,56.75
2022-07-29T06:46:23.285Z,56.82
2022-07-29T06:48:53.339Z,56.49
2022-07-29T06:51:23.332Z,56.56
2022-07-29T06:54:00.582Z,56.24
2022-07-29T06:56:39.254Z,55.95
2022-07-29T06:59:09.995Z,55.99
2022-07-29T07:01:39.436Z,55.75
2022-07-29T07:04:09.815Z,55.61
2022-07-29T07:06:38.890Z,55.70
2022-07-29T07:09:07.531Z,55.47
2022-07-29T07:11:35.583Z,55.43
2022-07-29T07:14:04.453Z,54.91
2022-07-29T07:16:33.197Z,54.88
2022-07-29T07:19:01.804Z,54.91
2022-07-29T07:21:31.049Z,54.77
2022-07-29T07:24:00.655Z,54.41
2022-07-29T07:26:29.227Z,54.55
2022-07-29T07:28:57.263Z,54.57
2022-07-29T07:31:25.269Z,54.34
2022-07-29T07:33:54.618Z,54.12
2022-07-29T07:36:23.345Z,53.84
2022-07-29T07:38:51.473Z,53.92
2022-07-29T07:41:19.448Z,53.59
2022-07-29T07:43:47.481Z,53.66
2022-07-29T07:46:16.115Z,53.33
2022-07-29T07:48:44.300Z,53.13
2022-07-29T07:51:12.795Z,53.10
2022-07-29T07:53:40.995Z,53.14
2022-07-29T07:56:11.896Z,53.07
2022-07-29T07:58:40.322Z,52.54
2022-07-29T08:01:09.067Z,52.33
2022-07-29T08:04:27.667Z,52.17
2022-07-29T08:06:57.680Z,52.09
2022-07-29T08:09:52.387Z,51.95
2022-07-29T08:12:44.488Z,51.96
2022-07-29T08:15:50.403Z,51.96
2022-07-29T08:19:14.522Z,51.77
2022-07-29T08:21:54.947Z,51.91
2022-07-29T08:24:42.135Z,51.48
2022-07-29T08:27:40.605Z,51.67
2022-07-29T08:30:01.821Z,51.64
2022-07-29T08:32:52.598Z,51.28
2022-07-29T08:35:17.852Z,50.92
2022-07-29T08:37:46.006Z,50.79
2022-07-29T08:40:15.220Z,50.20
2022-07-29T08:42:43.353Z,49.95
2022-07-29T08:45:11.721Z,50.05
2022-07-29T08:47:43.353Z,49.53
2022-07-29T08:50:12.125Z,49.48
2022-07-29T08:52:42.031Z,49.84
2022-07-29T08:55:11.137Z,49.77
2022-07-29T09:02:00.793Z,48.99
2022-07-29T09:04:35.421Z,48.13
2022-07-29T09:08:19.598Z,48.89
2022-07-29T09:10:47.588Z,48.45
2022-07-29T09:13:15.587Z,47.56
2022-07-29T09:16:10.977Z,47.48
2022-07-29T09:18:41.682Z,47.16
2022-07-29T09:21:30.947Z,46.88
2022-07-29T09:24:10.097Z,46.98
2022-07-29T09:26:45.563Z,46.46
2022-07-29T09:29:18.675Z,46.50
2022-07-29T09:31:55.739Z,46.32
2022-07-29T09:34:29.558Z,46.15
2022-07-29T09:36:58.405Z,46.51
2022-07-29T09:39:32.950Z,46.32
2022-07-29T09:42:04.270Z,46.52
2022-07-29T09:44:51.722Z,46.44
2022-07-29T09:47:22.791Z,46.60
2022-07-29T09:49:59.301Z,45.83
2022-07-29T09:52:28.754Z,45.46
2022-07-29T09:55:10.429Z,45.32
2022-07-29T09:57:47.495Z,45.97
2022-07-29T10:00:17.189Z,45.42
2022-07-29T10:02:47.121Z,44.91
2022-07-29T10:05:19.617Z,44.60
2022-07-29T10:07:53.973Z,44.45
2022-07-29T10:10:26.992Z,44.13
2022-07-29T10:13:04.625Z,43.92
2022-07-29T10:15:39.637Z,43.54
2022-07-29T10:18:18.636Z,43.55
2022-07-29T10:20:46.877Z,43.45
2022-07-29T10:23:23.158Z,43.56
2022-07-29T10:25:51.537Z,43.39
2022-07-29T10:28:19.570Z,43.02
2022-07-29T10:30:51.475Z,42.97
2022-07-29T10:33:28.417Z,43.30
2022-07-29T10:36:16.467Z,42.65
2022-07-29T10:39:07.301Z,42.43
2022-07-29T10:42:33.534Z,41.83
2022-07-29T10:45:04.936Z,41.79
2022-07-29T10:47:35.223Z,41.52
2022-07-29T10:50:07.401Z,41.03
2022-07-29T10:52:50.669Z,41.23
2022-07-29T10:55:43.293Z,41.49
2022-07-29T10:58:19.866Z,41.38
2022-07-29T11:00:53.767Z,41.49
2022-07-29T11:03:52.346Z,41.02
2022-07-29T11:06:26.454Z,41.37
2022-07-29T11:09:20.385Z,40.95
2022-07-29T11:11:54.090Z,41.14
2022-07-29T11:14:59.130Z,41.36
2022-07-29T11:17:27.276Z,41.29
2022-07-29T11:20:40.613Z,41.25
2022-07-29T11:23:28.343Z,41.13
2022-07-29T11:26:23.131Z,40.63
2022-07-29T11:28:51.439Z,40.27
2022-07-29T11:31:43.238Z,40.11
2022-07-29T11:34:41.486Z,39.55
2022-07-29T11:37:09.327Z,39.57
2022-07-29T11:39:47.503Z,39.63
2022-07-29T11:42:41.906Z,39.11
2022-07-29T11:45:43.082Z,39.06
2022-07-29T11:48:27.932Z,38.78
2022-07-29T11:51:11.556Z,38.67
2022-07-29T11:53:41.508Z,38.60
2022-07-29T11:56:10.639Z,38.89
2022-07-29T11:59:15.503Z,38.91
2022-07-29T12:02:12.080Z,38.14
2022-07-29T12:04:56.518Z,37.93
2022-07-29T12:07:34.631Z,38.18
2022-07-29T12:10:06.235Z,38.19
2022-07-29T12:12:35.921Z,38.55
2022-07-29T12:15:21.008Z,38.06
2022-07-29T12:17:50.671Z,37.31
2022-07-29T12:20:30.734Z,37.54
2022-07-29T12:22:58.889Z,37.28
2022-07-29T12:25:35.201Z,36.76
2022-07-29T12:28:06.372Z,36.68
2022-07-29T12:30:42.665Z,36.86
2022-07-29T12:33:28.599Z,36.40
2022-07-29T12:36:06.775Z,36.77
2022-07-29T12:38:37.435Z,36.82
2022-07-29T12:41:05.615Z,37.11
2022-07-29T12:48:04.650Z,37.39
2022-07-29T12:50:33.555Z,36.93
2022-07-29T12:53:12.715Z,36.91
2022-07-29T12:55:52.782Z,37.01
2022-07-29T12:58:44.463Z,36.53
2022-07-29T13:01:20.606Z,36.37
2022-07-29T13:04:01.195Z,36.43
2022-07-29T13:06:49.683Z,36.37
2022-07-29T13:09:23.567Z,36.21
2022-07-29T13:11:54.032Z,36.05
2022-07-29T13:14:33.674Z,35.20
2022-07-29T13:17:08.587Z,34.74
2022-07-29T13:19:47.408Z,34.39
2022-07-29T13:22:17.747Z,34.70
2022-07-29T13:24:53.908Z,35.34
2022-07-29T13:27:25.107Z,35.47
2022-07-29T13:29:54.337Z,35.14
2022-07-29T13:32:28.248Z,34.94
2022-07-29T13:34:58.827Z,34.78
2022-07-29T13:37:27.545Z,34.31
2022-07-29T13:39:56.967Z,34.02
2022-07-29T13:42:26.022Z,34.36
2022-07-29T13:44:54.002Z,34.54
2022-07-29T13:47:34.064Z,34.21
2022-07-29T13:50:03.115Z,34.02
2022-07-29T13:52:31.122Z,33.81
2022-07-29T13:54:59.440Z,33.58
2022-07-29T13:57:28.124Z,33.31
2022-07-29T13:59:56.934Z,32.75
2022-07-29T14:02:26.160Z,32.87
2022-07-29T14:05:08.262Z,32.70
2022-07-29T14:07:54.768Z,33.14
2022-07-29T14:10:23.745Z,32.25
2022-07-29T14:12:52.439Z,32.62
2022-07-29T14:15:21.392Z,32.76
2022-07-29T14:17:49.540Z,32.13
2022-07-29T14:21:38.141Z,32.42
2022-07-29T14:25:26.733Z,31.90
2022-07-29T14:28:14.804Z,32.32
2022-07-29T14:30:44.547Z,32.06
2022-07-29T14:33:42.366Z,32.33
2022-07-29T14:36:14.526Z,31.97
2022-07-29T14:38:43.822Z,31.87
2022-07-29T14:41:12.106Z,32.16
2022-07-29T14:45:11.261Z,32.14
2022-07-29T14:49:00.226Z,31.58
2022-07-29T14:52:49.155Z,32.21
2022-07-29T14:56:37.856Z,32.03
2022-07-29T15:00:38.544Z,31.80
2022-07-29T15:03:06.923Z,31.68
2022-07-29T15:06:54.723Z,31.60
2022-07-29T15:09:24.584Z,32.13
2022-07-29T15:11:52.810Z,32.67
2022-07-29T15:19:04.799Z,33.80
2022-07-29T15:21:33.175Z,33.92
2022-07-29T15:24:01.179Z,34.20
2022-07-29T15:26:32.161Z,34.45
2022-07-29T15:29:01.246Z,34.71
2022-07-29T15:31:57.334Z,34.99
2022-07-29T15:34:25.658Z,35.58
2022-07-29T15:36:54.089Z,35.84
2022-07-29T15:39:23.332Z,36.46
2022-07-29T15:42:17.775Z,36.95
2022-07-29T15:44:45.936Z,37.11
2022-07-29T15:47:13.908Z,37.54
2022-07-29T15:49:47.555Z,37.49
2022-07-29T15:52:25.246Z,37.88
2022-07-29T15:54:55.870Z,38.41
2022-07-29T15:57:25.099Z,38.81
2022-07-29T15:59:53.100Z,39.28
2022-07-29T16:02:21.328Z,39.27
2022-07-29T16:04:49.347Z,39.80
2022-07-29T16:07:18.025Z,40.20
2022-07-29T16:09:50.871Z,40.30
2022-07-29T16:12:21.152Z,41.16
2022-07-29T16:14:51.403Z,41.94
2022-07-29T16:17:19.979Z,42.77
2022-07-29T16:19:48.656Z,43.28
2022-07-29T16:22:16.755Z,44.09
2022-07-29T16:29:07.081Z,46.61
2022-07-29T16:31:35.024Z,47.38
2022-07-29T16:34:03.038Z,48.52
2022-07-29T16:36:32.413Z,48.95
2022-07-29T16:39:00.393Z,49.52
2022-07-29T16:41:29.781Z,50.72
2022-07-29T16:43:57.887Z,50.76
2022-07-29T16:46:25.920Z,51.37
2022-07-29T16:48:53.975Z,52.22
2022-07-29T16:51:22.229Z,52.52
2022-07-29T16:53:50.566Z,53.00
2022-07-29T16:56:18.694Z,53.83
2022-07-29T16:58:47.223Z,54.87
2022-07-29T17:01:15.319Z,54.55
2022-07-29T17:04:01.935Z,54.56
2022-07-29T17:06:30.114Z,54.46
2022-07-29T17:08:58.041Z,54.79
2022-07-29T17:11:51.690Z,56.44
2022-07-29T17:14:13.824Z,57.00
2022-07-29T17:16:41.755Z,57.66
2022-07-29T17:19:12.407Z,59.13
2022-07-29T17:21:46.767Z,58.16
2022-07-29T17:24:17.325Z,58.84
2022-07-29T17:26:45.678Z,58.79
2022-07-29T17:29:16.023Z,58.96
2022-07-29T17:31:44.122Z,58.70
2022-07-29T17:34:12.624Z,59.15
2022-07-29T17:36:40.692Z,60.99
2022-07-29T17:39:11.402Z,60.61
2022-07-29T17:41:41.867Z,61.40
2022-07-29T17:44:09.755Z,61.78
2022-07-29T17:46:37.784Z,60.83
2022-07-29T17:49:06.425Z,60.98
2022-07-29T17:51:34.750Z,61.23
2022-07-29T17:54:05.261Z,61.88
2022-07-29T17:56:33.436Z,61.71
2022-07-29T17:59:06.500Z,61.94
2022-07-29T18:01:34.615Z,61.59
2022-07-29T18:04:02.956Z,62.01
2022-07-29T18:06:30.829Z,62.15
2022-07-29T18:08:58.857Z,62.63
2022-07-29T18:11:27.616Z,63.32
2022-07-29T18:13:55.443Z,63.02
2022-07-29T18:16:23.673Z,63.83
2022-07-29T18:18:51.522Z,63.33
2022-07-29T18:21:19.419Z,63.68
2022-07-29T18:24:07.943Z,64.84
2022-07-29T18:26:36.365Z,66.51
2022-07-29T18:29:04.475Z,66.02
2022-07-29T18:31:32.365Z,66.56
2022-07-29T18:34:00.471Z,66.58
2022-07-29T18:36:28.651Z,66.10
2022-07-29T18:38:56.674Z,66.31
2022-07-29T18:41:24.662Z,66.28
2022-07-29T18:43:52.594Z,66.17
2022-07-29T18:46:22.585Z,66.16
2022-07-29T18:48:51.001Z,65.79
2022-07-29T18:51:24.154Z,65.45
2022-07-29T18:53:52.673Z,65.50
2022-07-29T18:56:21.023Z,66.04
2022-07-29T18:58:48.935Z,65.73
2022-07-29T19:01:16.958Z,66.02
2022-07-29T19:03:47.286Z,65.99
2022-07-29T19:06:15.476Z,65.86
2022-07-29T19:08:43.414Z,65.39
2022-07-29T19:11:13.000Z,65.05
2022-07-29T19:13:41.222Z,64.97
2022-07-29T19:16:12.935Z,65.36
2022-07-29T19:18:41.562Z,65.72
2022-07-29T19:21:09.506Z,65.87
2022-07-29T19:24:05.838Z,66.14
2022-07-29T19:26:26.415Z,66.45
2022-07-29T19:28:54.668Z,66.79
2022-07-29T19:31:22.839Z,66.86
2022-07-29T19:33:50.979Z,67.46
2022-07-29T19:36:19.015Z,67.31
2022-07-29T19:38:46.870Z,67.30
2022-07-29T19:41:17.137Z,67.99
2022-07-29T19:43:51.798Z,68.16
2022-07-29T19:46:21.833Z,68.70
2022-07-29T19:48:50.788Z,68.44
2022-07-29T19:51:18.818Z,68.66
2022-07-29T19:53:46.762Z,68.80
2022-07-29T19:56:14.677Z,69.20
2022-07-29T19:58:44.159Z,69.06
2022-07-29T20:01:13.460Z,68.89
2022-07-29T20:03:41.532Z,69.33
2022-07-29T20:06:09.642Z,69.21
2022-07-29T20:09:28.302Z,69.59
2022-07-29T20:11:56.267Z,69.28
2022-07-29T20:14:24.366Z,69.91
2022-07-29T20:16:54.114Z,69.82
2022-07-29T20:19:21.968Z,70.22
2022-07-29T20:21:51.491Z,70.44
2022-07-29T20:24:20.506Z,71.16
2022-07-29T20:26:48.846Z,71.48
2022-07-29T20:29:17.309Z,71.49
2022-07-29T20:31:45.824Z,72.12
2022-07-29T20:34:24.298Z,72.29
2022-07-29T20:36:52.218Z,72.81
2022-07-29T20:39:22.919Z,72.37
2022-07-29T20:41:50.868Z,72.30
2022-07-29T20:44:24.138Z,72.20
2022-07-29T20:46:52.140Z,72.05
2022-07-29T20:49:20.068Z,72.08
2022-07-29T20:51:48.083Z,71.95
2022-07-29T20:54:16.150Z,72.07
2022-07-29T20:56:44.161Z,71.65
2022-07-29T20:59:12.154Z,71.15
2022-07-29T21:01:40.114Z,71.19
2022-07-29T21:04:08.151Z,71.04
2022-07-29T21:06:36.536Z,71.07
2022-07-29T21:09:04.671Z,71.00
2022-07-29T21:11:44.158Z,70.77
2022-07-29T21:14:32.626Z,70.57
2022-07-29T21:17:01.912Z,70.42
2022-07-29T21:19:30.143Z,70.48
2022-07-29T21:21:58.187Z,70.63
2022-07-29T21:24:26.210Z,70.35
2022-07-29T21:27:20.666Z,70.41
2022-07-29T21:29:49.745Z,70.68
2022-07-29T21:32:29.728Z,70.55
2022-07-29T21:34:58.501Z,70.28
2022-07-29T21:37:32.626Z,70.48
2022-07-29T21:40:00.617Z,70.70
2022-07-29T21:42:28.536Z,70.42
2022-07-29T21:44:56.923Z,70.69
2022-07-29T21:47:45.545Z,70.74
2022-07-29T21:51:34.434Z,71.07
2022-07-29T21:54:26.498Z,71.13
2022-07-29T21:56:56.152Z,71.24
2022-07-29T21:59:25.896Z,70.67
2022-07-29T22:01:53.798Z,70.28
2022-07-29T22:04:22.314Z,69.99
2022-07-29T22:06:50.328Z,69.88
2022-07-29T22:09:18.467Z,70.09
2022-07-29T22:11:47.974Z,70.77
2022-07-29T22:14:17.802Z,70.83
2022-07-29T22:16:47.254Z,70.82
2022-07-29T22:19:15.565Z,70.13
2022-07-29T22:21:47.268Z,69.90
2022-07-29T22:24:15.331Z,70.18
2022-07-29T22:26:43.285Z,69.96
2022-07-29T22:29:11.809Z,69.75
2022-07-29T22:32:30.000Z,69.61
2022-07-29T22:34:58.167Z,69.44
2022-07-29T22:37:27.493Z,69.23
2022-07-29T22:39:55.534Z,69.25
2022-07-29T22:42:24.270Z,69.13
2022-07-29T22:44:54.239Z,69.14
2022-07-29T22:47:45.845Z,68.95
2022-07-29T22:50:10.598Z,68.84
2022-07-29T22:52:38.709Z,68.72
2022-07-29T22:55:07.136Z,68.87
2022-07-29T22:57:35.287Z,68.96
2022-07-29T23:00:05.133Z,69.00
2022-07-29T23:02:33.193Z,68.94
2022-07-29T23:05:01.069Z,69.03
2022-07-29T23:07:28.988Z,68.97
2022-07-29T23:09:56.911Z,68.94
2022-07-29T23:12:24.818Z,69.12
2022-07-29T23:14:52.705Z,69.05
2022-07-29T23:17:20.706Z,69.20
2022-07-29T23:19:48.659Z,69.05
2022-07-29T23:22:16.575Z,69.00
2022-07-29T23:24:46.560Z,68.92
2022-07-29T23:27:14.467Z,69.15
2022-07-29T23:29:42.388Z,69.35
2022-07-29T23:32:10.403Z,69.41
2022-07-29T23:34:38.357Z,69.56
2022-07-29T23:37:06.292Z,69.67
2022-07-29T23:39:34.194Z,69.61
2022-07-29T23:42:02.665Z,69.93
2022-07-29T23:44:30.543Z,69.96
2022-07-29T23:46:58.665Z,70.14
2022-07-29T23:49:26.849Z,70.36
2022-07-29T23:51:54.774Z,70.59
2022-07-29T23:54:22.766Z,70.67
2022-07-29T23:56:50.708Z,70.43
2022-07-29T23:59:18.560Z,70.62
